sensor_id;sensor_type;location;lat;lon;timestamp;P1;durP1;ratioP1;P2;durP2;ratioP2
67804;SDS011;54603;45.638;11.714;2022-08-21T00:00:51;1.90;;;1.50;;
67804;SDS011;54603;45.638;11.714;2022-08-21T00:03:17;2.00;;;1.50;;
67804;SDS011;54603;45.638;11.714;2022-08-21T00:05:48;1.60;;;1.50;;
67804;SDS011;54603;45.638;11.714;2022-08-21T00:08:15;2.00;;;1.60;;
67804;SDS011;54603;45.638;11.714;2022-08-21T00:10:42;4.30;;;1.50;;
67804;SDS011;54603;45.638;11.714;2022-08-21T00:13:10;3.20;;;1.50;;
67804;SDS011;54603;45.638;11.714;2022-08-21T00:15:36;2.30;;;1.60;;
67804;SDS011;54603;45.638;11.714;2022-08-21T00:18:03;3.50;;;1.40;;
67804;SDS011;54603;45.638;11.714;2022-08-21T00:20:31;1.90;;;1.60;;
67804;SDS011;54603;45.638;11.714;2022-08-21T00:22:57;3.00;;;1.60;;
67804;SDS011;54603;45.638;11.714;2022-08-21T00:25:22;1.70;;;1.60;;
67804;SDS011;54603;45.638;11.714;2022-08-21T00:27:48;2.30;;;1.60;;
67804;SDS011;54603;45.638;11.714;2022-08-21T00:30:15;1.50;;;1.40;;
67804;SDS011;54603;45.638;11.714;2022-08-21T00:32:42;2.10;;;1.50;;
67804;SDS011;54603;45.638;11.714;2022-08-21T00:35:08;1.90;;;1.60;;
67804;SDS011;54603;45.638;11.714;2022-08-21T00:37:38;1.80;;;1.50;;
67804;SDS011;54603;45.638;11.714;2022-08-21T00:40:04;2.20;;;1.60;;
67804;SDS011;54603;45.638;11.714;2022-08-21T00:42:30;1.60;;;1.50;;
67804;SDS011;54603;45.638;11.714;2022-08-21T00:44:56;3.70;;;1.60;;
67804;SDS011;54603;45.638;11.714;2022-08-21T00:47:23;1.60;;;1.50;;
67804;SDS011;54603;45.638;11.714;2022-08-21T00:49:48;1.50;;;1.40;;
67804;SDS011;54603;45.638;11.714;2022-08-21T00:52:15;1.70;;;1.40;;
67804;SDS011;54603;45.638;11.714;2022-08-21T00:54:44;1.60;;;1.50;;
67804;SDS011;54603;45.638;11.714;2022-08-21T00:57:14;2.40;;;1.40;;
67804;SDS011;54603;45.638;11.714;2022-08-21T00:59:46;1.50;;;1.40;;
67804;SDS011;54603;45.638;11.714;2022-08-21T01:02:16;2.70;;;1.60;;
67804;SDS011;54603;45.638;11.714;2022-08-21T01:04:42;1.70;;;1.30;;
67804;SDS011;54603;45.638;11.714;2022-08-21T01:07:08;2.10;;;1.50;;
67804;SDS011;54603;45.638;11.714;2022-08-21T01:09:34;2.40;;;1.50;;
67804;SDS011;54603;45.638;11.714;2022-08-21T01:12:00;2.30;;;1.40;;
67804;SDS011;54603;45.638;11.714;2022-08-21T01:14:26;2.50;;;1.80;;
67804;SDS011;54603;45.638;11.714;2022-08-21T01:16:53;2.20;;;1.70;;
67804;SDS011;54603;45.638;11.714;2022-08-21T01:19:20;3.30;;;1.60;;
67804;SDS011;54603;45.638;11.714;2022-08-21T01:21:46;2.80;;;1.60;;
67804;SDS011;54603;45.638;11.714;2022-08-21T01:24:12;2.10;;;1.80;;
67804;SDS011;54603;45.638;11.714;2022-08-21T01:26:38;2.00;;;1.60;;
67804;SDS011;54603;45.638;11.714;2022-08-21T01:29:07;1.70;;;1.50;;
67804;SDS011;54603;45.638;11.714;2022-08-21T01:31:37;3.20;;;1.70;;
67804;SDS011;54603;45.638;11.714;2022-08-21T01:34:03;2.90;;;1.60;;
67804;SDS011;54603;45.638;11.714;2022-08-21T01:36:29;2.50;;;1.60;;
67804;SDS011;54603;45.638;11.714;2022-08-21T01:38:55;2.30;;;1.50;;
67804;SDS011;54603;45.638;11.714;2022-08-21T01:41:21;2.40;;;1.60;;
67804;SDS011;54603;45.638;11.714;2022-08-21T01:43:47;1.80;;;1.60;;
67804;SDS011;54603;45.638;11.714;2022-08-21T01:46:13;1.80;;;1.60;;
67804;SDS011;54603;45.638;11.714;2022-08-21T01:48:39;1.70;;;1.40;;
67804;SDS011;54603;45.638;11.714;2022-08-21T01:51:05;3.80;;;1.60;;
67804;SDS011;54603;45.638;11.714;2022-08-21T01:53:32;2.20;;;1.60;;
67804;SDS011;54603;45.638;11.714;2022-08-21T01:56:01;2.40;;;1.70;;
67804;SDS011;54603;45.638;11.714;2022-08-21T01:58:27;2.00;;;1.50;;
67804;SDS011;54603;45.638;11.714;2022-08-21T02:00:53;1.40;;;1.30;;
67804;SDS011;54603;45.638;11.714;2022-08-21T02:03:19;3.10;;;1.50;;
67804;SDS011;54603;45.638;11.714;2022-08-21T02:05:44;2.70;;;1.50;;
67804;SDS011;54603;45.638;11.714;2022-08-21T02:08:10;1.70;;;1.40;;
67804;SDS011;54603;45.638;11.714;2022-08-21T02:10:38;1.80;;;1.30;;
67804;SDS011;54603;45.638;11.714;2022-08-21T02:13:06;1.70;;;1.60;;
67804;SDS011;54603;45.638;11.714;2022-08-21T02:15:32;2.70;;;1.50;;
67804;SDS011;54603;45.638;11.714;2022-08-21T02:17:59;1.60;;;1.50;;
67804;SDS011;54603;45.638;11.714;2022-08-21T02:20:33;1.80;;;1.40;;
67804;SDS011;54603;45.638;11.714;2022-08-21T02:23:01;1.80;;;1.50;;
67804;SDS011;54603;45.638;11.714;2022-08-21T02:25:27;2.10;;;1.40;;
67804;SDS011;54603;45.638;11.714;2022-08-21T02:27:53;2.20;;;1.40;;
67804;SDS011;54603;45.638;11.714;2022-08-21T02:30:26;1.60;;;1.40;;
67804;SDS011;54603;45.638;11.714;2022-08-21T02:32:54;1.70;;;1.30;;
67804;SDS011;54603;45.638;11.714;2022-08-21T02:35:21;1.60;;;1.50;;
67804;SDS011;54603;45.638;11.714;2022-08-21T02:37:48;2.40;;;1.60;;
67804;SDS011;54603;45.638;11.714;2022-08-21T02:40:17;3.20;;;1.70;;
67804;SDS011;54603;45.638;11.714;2022-08-21T02:42:45;1.90;;;1.50;;
67804;SDS011;54603;45.638;11.714;2022-08-21T02:45:11;2.20;;;1.50;;
67804;SDS011;54603;45.638;11.714;2022-08-21T02:47:38;1.70;;;1.50;;
67804;SDS011;54603;45.638;11.714;2022-08-21T02:50:04;1.90;;;1.30;;
67804;SDS011;54603;45.638;11.714;2022-08-21T02:52:30;1.50;;;1.30;;
67804;SDS011;54603;45.638;11.714;2022-08-21T02:54:56;1.90;;;1.20;;
67804;SDS011;54603;45.638;11.714;2022-08-21T02:57:21;1.50;;;1.40;;
67804;SDS011;54603;45.638;11.714;2022-08-21T02:59:47;1.50;;;1.40;;
67804;SDS011;54603;45.638;11.714;2022-08-21T03:02:13;1.80;;;1.50;;
67804;SDS011;54603;45.638;11.714;2022-08-21T03:04:39;1.60;;;1.30;;
67804;SDS011;54603;45.638;11.714;2022-08-21T03:07:04;1.80;;;1.60;;
67804;SDS011;54603;45.638;11.714;2022-08-21T03:09:30;2.40;;;1.60;;
67804;SDS011;54603;45.638;11.714;2022-08-21T03:11:55;1.50;;;1.30;;
67804;SDS011;54603;45.638;11.714;2022-08-21T03:14:21;2.10;;;1.60;;
67804;SDS011;54603;45.638;11.714;2022-08-21T03:16:46;1.40;;;1.30;;
67804;SDS011;54603;45.638;11.714;2022-08-21T03:19:12;1.70;;;1.20;;
67804;SDS011;54603;45.638;11.714;2022-08-21T03:21:38;1.60;;;1.50;;
67804;SDS011;54603;45.638;11.714;2022-08-21T03:24:03;1.60;;;1.50;;
67804;SDS011;54603;45.638;11.714;2022-08-21T03:26:30;2.40;;;1.50;;
67804;SDS011;54603;45.638;11.714;2022-08-21T03:28:56;2.00;;;1.40;;
67804;SDS011;54603;45.638;11.714;2022-08-21T03:31:22;1.80;;;1.60;;
67804;SDS011;54603;45.638;11.714;2022-08-21T03:33:48;2.30;;;1.40;;
67804;SDS011;54603;45.638;11.714;2022-08-21T03:36:15;1.50;;;1.40;;
67804;SDS011;54603;45.638;11.714;2022-08-21T03:38:41;1.70;;;1.50;;
67804;SDS011;54603;45.638;11.714;2022-08-21T03:41:07;1.70;;;1.40;;
67804;SDS011;54603;45.638;11.714;2022-08-21T03:43:32;2.20;;;1.60;;
67804;SDS011;54603;45.638;11.714;2022-08-21T03:46:00;2.40;;;1.50;;
67804;SDS011;54603;45.638;11.714;2022-08-21T03:48:27;3.60;;;1.60;;
67804;SDS011;54603;45.638;11.714;2022-08-21T03:50:52;1.40;;;1.30;;
67804;SDS011;54603;45.638;11.714;2022-08-21T03:53:18;1.30;;;1.20;;
67804;SDS011;54603;45.638;11.714;2022-08-21T03:55:45;2.20;;;1.30;;
67804;SDS011;54603;45.638;11.714;2022-08-21T03:58:13;1.50;;;1.40;;
67804;SDS011;54603;45.638;11.714;2022-08-21T04:00:40;1.40;;;1.30;;
67804;SDS011;54603;45.638;11.714;2022-08-21T04:03:05;1.40;;;1.30;;
67804;SDS011;54603;45.638;11.714;2022-08-21T04:05:31;1.30;;;1.20;;
67804;SDS011;54603;45.638;11.714;2022-08-21T04:07:58;1.80;;;1.60;;
67804;SDS011;54603;45.638;11.714;2022-08-21T04:10:28;1.40;;;1.30;;
67804;SDS011;54603;45.638;11.714;2022-08-21T04:12:57;2.00;;;1.40;;
67804;SDS011;54603;45.638;11.714;2022-08-21T04:15:23;1.70;;;1.30;;
67804;SDS011;54603;45.638;11.714;2022-08-21T04:17:49;2.00;;;1.20;;
67804;SDS011;54603;45.638;11.714;2022-08-21T04:20:16;1.50;;;1.20;;
67804;SDS011;54603;45.638;11.714;2022-08-21T04:22:43;1.90;;;1.50;;
67804;SDS011;54603;45.638;11.714;2022-08-21T04:25:09;1.50;;;1.40;;
67804;SDS011;54603;45.638;11.714;2022-08-21T04:27:35;2.00;;;1.50;;
67804;SDS011;54603;45.638;11.714;2022-08-21T04:30:02;2.00;;;1.40;;
67804;SDS011;54603;45.638;11.714;2022-08-21T04:32:28;1.40;;;1.20;;
67804;SDS011;54603;45.638;11.714;2022-08-21T04:35:02;1.40;;;1.30;;
67804;SDS011;54603;45.638;11.714;2022-08-21T04:37:31;1.60;;;1.50;;
67804;SDS011;54603;45.638;11.714;2022-08-21T04:39:56;1.50;;;1.40;;
67804;SDS011;54603;45.638;11.714;2022-08-21T04:42:23;1.60;;;1.50;;
67804;SDS011;54603;45.638;11.714;2022-08-21T04:44:50;1.40;;;1.30;;
67804;SDS011;54603;45.638;11.714;2022-08-21T04:47:18;2.40;;;1.40;;
67804;SDS011;54603;45.638;11.714;2022-08-21T04:49:44;1.60;;;1.40;;
67804;SDS011;54603;45.638;11.714;2022-08-21T04:52:10;1.50;;;1.40;;
67804;SDS011;54603;45.638;11.714;2022-08-21T04:54:37;2.70;;;1.60;;
67804;SDS011;54603;45.638;11.714;2022-08-21T04:57:04;5.70;;;1.60;;
67804;SDS011;54603;45.638;11.714;2022-08-21T04:59:34;3.40;;;1.30;;
67804;SDS011;54603;45.638;11.714;2022-08-21T05:02:04;1.50;;;1.40;;
67804;SDS011;54603;45.638;11.714;2022-08-21T05:04:31;1.90;;;1.50;;
67804;SDS011;54603;45.638;11.714;2022-08-21T05:06:59;1.70;;;1.60;;
67804;SDS011;54603;45.638;11.714;2022-08-21T05:09:26;3.40;;;1.50;;
67804;SDS011;54603;45.638;11.714;2022-08-21T05:11:52;2.50;;;1.60;;
67804;SDS011;54603;45.638;11.714;2022-08-21T05:14:18;2.40;;;1.50;;
67804;SDS011;54603;45.638;11.714;2022-08-21T05:16:44;1.80;;;1.20;;
67804;SDS011;54603;45.638;11.714;2022-08-21T05:19:11;1.60;;;1.30;;
67804;SDS011;54603;45.638;11.714;2022-08-21T05:21:37;2.20;;;1.50;;
67804;SDS011;54603;45.638;11.714;2022-08-21T05:26:33;4.80;;;1.60;;
67804;SDS011;54603;45.638;11.714;2022-08-21T05:29:01;2.40;;;1.30;;
67804;SDS011;54603;45.638;11.714;2022-08-21T05:31:26;1.90;;;1.40;;
67804;SDS011;54603;45.638;11.714;2022-08-21T05:33:52;2.50;;;1.50;;
67804;SDS011;54603;45.638;11.714;2022-08-21T05:36:18;2.10;;;1.50;;
67804;SDS011;54603;45.638;11.714;2022-08-21T05:38:44;1.70;;;1.50;;
67804;SDS011;54603;45.638;11.714;2022-08-21T05:41:09;1.60;;;1.50;;
67804;SDS011;54603;45.638;11.714;2022-08-21T05:43:35;1.50;;;1.40;;
67804;SDS011;54603;45.638;11.714;2022-08-21T05:46:03;2.90;;;1.40;;
67804;SDS011;54603;45.638;11.714;2022-08-21T05:48:30;5.10;;;1.70;;
67804;SDS011;54603;45.638;11.714;2022-08-21T05:50:56;1.90;;;1.40;;
67804;SDS011;54603;45.638;11.714;2022-08-21T05:53:22;1.40;;;1.10;;
67804;SDS011;54603;45.638;11.714;2022-08-21T05:55:49;1.90;;;1.40;;
67804;SDS011;54603;45.638;11.714;2022-08-21T05:58:17;3.20;;;1.60;;
67804;SDS011;54603;45.638;11.714;2022-08-21T06:00:44;2.40;;;1.40;;
67804;SDS011;54603;45.638;11.714;2022-08-21T06:03:13;3.10;;;1.30;;
67804;SDS011;54603;45.638;11.714;2022-08-21T06:05:46;2.10;;;1.40;;
67804;SDS011;54603;45.638;11.714;2022-08-21T06:08:13;1.80;;;1.30;;
67804;SDS011;54603;45.638;11.714;2022-08-21T06:10:39;3.60;;;1.30;;
67804;SDS011;54603;45.638;11.714;2022-08-21T06:13:04;3.00;;;1.30;;
67804;SDS011;54603;45.638;11.714;2022-08-21T06:15:30;2.40;;;1.30;;
67804;SDS011;54603;45.638;11.714;2022-08-21T06:17:56;2.00;;;1.40;;
67804;SDS011;54603;45.638;11.714;2022-08-21T06:20:21;2.60;;;1.30;;
67804;SDS011;54603;45.638;11.714;2022-08-21T06:22:47;2.70;;;1.50;;
67804;SDS011;54603;45.638;11.714;2022-08-21T06:25:13;1.70;;;1.30;;
67804;SDS011;54603;45.638;11.714;2022-08-21T06:27:38;4.50;;;1.40;;
67804;SDS011;54603;45.638;11.714;2022-08-21T06:30:05;1.40;;;1.30;;
67804;SDS011;54603;45.638;11.714;2022-08-21T06:32:31;1.90;;;1.30;;
67804;SDS011;54603;45.638;11.714;2022-08-21T06:34:57;1.40;;;1.30;;
67804;SDS011;54603;45.638;11.714;2022-08-21T06:37:23;3.60;;;1.30;;
67804;SDS011;54603;45.638;11.714;2022-08-21T06:39:48;2.30;;;1.20;;
67804;SDS011;54603;45.638;11.714;2022-08-21T06:42:15;2.70;;;1.30;;
67804;SDS011;54603;45.638;11.714;2022-08-21T06:44:41;1.30;;;1.20;;
67804;SDS011;54603;45.638;11.714;2022-08-21T06:47:07;2.10;;;1.50;;
67804;SDS011;54603;45.638;11.714;2022-08-21T06:49:33;1.30;;;1.20;;
67804;SDS011;54603;45.638;11.714;2022-08-21T06:51:59;8.60;;;1.50;;
67804;SDS011;54603;45.638;11.714;2022-08-21T06:54:25;2.00;;;1.30;;
67804;SDS011;54603;45.638;11.714;2022-08-21T06:56:50;4.90;;;1.40;;
67804;SDS011;54603;45.638;11.714;2022-08-21T06:59:16;6.60;;;1.30;;
67804;SDS011;54603;45.638;11.714;2022-08-21T07:01:42;3.60;;;1.30;;
67804;SDS011;54603;45.638;11.714;2022-08-21T07:04:07;2.00;;;1.40;;
67804;SDS011;54603;45.638;11.714;2022-08-21T07:06:33;2.40;;;1.40;;
67804;SDS011;54603;45.638;11.714;2022-08-21T07:09:00;4.90;;;1.30;;
67804;SDS011;54603;45.638;11.714;2022-08-21T07:11:31;2.60;;;1.80;;
67804;SDS011;54603;45.638;11.714;2022-08-21T07:14:03;3.80;;;1.40;;
67804;SDS011;54603;45.638;11.714;2022-08-21T07:16:29;3.10;;;1.40;;
67804;SDS011;54603;45.638;11.714;2022-08-21T07:18:56;3.60;;;1.60;;
67804;SDS011;54603;45.638;11.714;2022-08-21T07:21:23;2.80;;;1.40;;
67804;SDS011;54603;45.638;11.714;2022-08-21T07:24:05;2.40;;;1.10;;
67804;SDS011;54603;45.638;11.714;2022-08-21T07:26:34;1.70;;;1.30;;
67804;SDS011;54603;45.638;11.714;2022-08-21T07:29:00;3.60;;;1.40;;
67804;SDS011;54603;45.638;11.714;2022-08-21T07:31:27;2.00;;;1.20;;
67804;SDS011;54603;45.638;11.714;2022-08-21T07:33:55;3.50;;;1.40;;
67804;SDS011;54603;45.638;11.714;2022-08-21T07:36:29;4.60;;;1.40;;
67804;SDS011;54603;45.638;11.714;2022-08-21T07:38:56;4.70;;;1.50;;
67804;SDS011;54603;45.638;11.714;2022-08-21T07:41:24;3.70;;;1.30;;
67804;SDS011;54603;45.638;11.714;2022-08-21T07:43:51;1.30;;;1.10;;
67804;SDS011;54603;45.638;11.714;2022-08-21T07:46:17;2.90;;;1.40;;
67804;SDS011;54603;45.638;11.714;2022-08-21T07:48:43;2.40;;;1.60;;
67804;SDS011;54603;45.638;11.714;2022-08-21T07:51:10;2.40;;;1.50;;
67804;SDS011;54603;45.638;11.714;2022-08-21T07:53:38;2.80;;;1.40;;
67804;SDS011;54603;45.638;11.714;2022-08-21T07:56:05;4.90;;;1.60;;
67804;SDS011;54603;45.638;11.714;2022-08-21T07:58:31;5.50;;;1.60;;
67804;SDS011;54603;45.638;11.714;2022-08-21T08:00:57;4.00;;;1.80;;
67804;SDS011;54603;45.638;11.714;2022-08-21T08:03:23;3.80;;;1.70;;
67804;SDS011;54603;45.638;11.714;2022-08-21T08:05:49;2.40;;;1.70;;
67804;SDS011;54603;45.638;11.714;2022-08-21T08:08:14;4.40;;;1.80;;
67804;SDS011;54603;45.638;11.714;2022-08-21T08:10:40;4.80;;;2.00;;
67804;SDS011;54603;45.638;11.714;2022-08-21T08:13:06;4.40;;;1.70;;
67804;SDS011;54603;45.638;11.714;2022-08-21T08:15:32;4.90;;;2.10;;
67804;SDS011;54603;45.638;11.714;2022-08-21T08:17:57;10.70;;;2.00;;
67804;SDS011;54603;45.638;11.714;2022-08-21T08:20:24;5.80;;;2.20;;
67804;SDS011;54603;45.638;11.714;2022-08-21T08:22:52;4.70;;;1.90;;
67804;SDS011;54603;45.638;11.714;2022-08-21T08:25:19;7.60;;;2.00;;
67804;SDS011;54603;45.638;11.714;2022-08-21T08:27:46;7.70;;;2.40;;
67804;SDS011;54603;45.638;11.714;2022-08-21T08:30:12;6.60;;;2.60;;
67804;SDS011;54603;45.638;11.714;2022-08-21T08:32:39;11.00;;;3.10;;
67804;SDS011;54603;45.638;11.714;2022-08-21T08:35:06;10.70;;;3.00;;
67804;SDS011;54603;45.638;11.714;2022-08-21T08:37:33;7.40;;;2.80;;
67804;SDS011;54603;45.638;11.714;2022-08-21T08:39:59;8.40;;;2.60;;
67804;SDS011;54603;45.638;11.714;2022-08-21T08:42:30;10.20;;;2.80;;
67804;SDS011;54603;45.638;11.714;2022-08-21T08:45:02;13.60;;;2.70;;
67804;SDS011;54603;45.638;11.714;2022-08-21T08:47:35;8.90;;;2.50;;
67804;SDS011;54603;45.638;11.714;2022-08-21T08:50:10;9.50;;;2.90;;
67804;SDS011;54603;45.638;11.714;2022-08-21T08:52:45;5.70;;;2.50;;
67804;SDS011;54603;45.638;11.714;2022-08-21T08:55:36;7.10;;;2.70;;
67804;SDS011;54603;45.638;11.714;2022-08-21T08:58:09;6.70;;;2.70;;
67804;SDS011;54603;45.638;11.714;2022-08-21T09:00:39;14.20;;;3.00;;
67804;SDS011;54603;45.638;11.714;2022-08-21T09:03:04;6.00;;;2.90;;
67804;SDS011;54603;45.638;11.714;2022-08-21T09:05:36;6.90;;;2.70;;
67804;SDS011;54603;45.638;11.714;2022-08-21T09:11:03;6.80;;;2.60;;
67804;SDS011;54603;45.638;11.714;2022-08-21T09:21:36;8.00;;;2.50;;
67804;SDS011;54603;45.638;11.714;2022-08-21T09:27:14;4.00;;;2.50;;
67804;SDS011;54603;45.638;11.714;2022-08-21T09:29:42;5.70;;;2.20;;
67804;SDS011;54603;45.638;11.714;2022-08-21T09:32:20;5.60;;;2.30;;
67804;SDS011;54603;45.638;11.714;2022-08-21T09:45:36;4.30;;;2.10;;
67804;SDS011;54603;45.638;11.714;2022-08-21T09:48:13;4.50;;;2.20;;
67804;SDS011;54603;45.638;11.714;2022-08-21T09:50:46;8.60;;;2.30;;
67804;SDS011;54603;45.638;11.714;2022-08-21T09:53:19;6.20;;;2.00;;
67804;SDS011;54603;45.638;11.714;2022-08-21T09:55:48;9.30;;;2.30;;
67804;SDS011;54603;45.638;11.714;2022-08-21T09:58:40;8.60;;;2.50;;
67804;SDS011;54603;45.638;11.714;2022-08-21T10:01:11;5.60;;;2.30;;
67804;SDS011;54603;45.638;11.714;2022-08-21T10:03:39;7.20;;;2.50;;
67804;SDS011;54603;45.638;11.714;2022-08-21T10:06:06;5.40;;;2.20;;
67804;SDS011;54603;45.638;11.714;2022-08-21T10:08:36;6.30;;;2.10;;
67804;SDS011;54603;45.638;11.714;2022-08-21T10:11:12;5.00;;;2.10;;
67804;SDS011;54603;45.638;11.714;2022-08-21T10:16:27;4.70;;;2.30;;
67804;SDS011;54603;45.638;11.714;2022-08-21T10:24:25;6.20;;;2.20;;
67804;SDS011;54603;45.638;11.714;2022-08-21T10:27:14;7.70;;;2.20;;
67804;SDS011;54603;45.638;11.714;2022-08-21T10:29:53;10.20;;;3.40;;
67804;SDS011;54603;45.638;11.714;2022-08-21T10:35:22;55.40;;;20.70;;
67804;SDS011;54603;45.638;11.714;2022-08-21T10:40:36;99.60;;;63.70;;
67804;SDS011;54603;45.638;11.714;2022-08-21T10:43:32;162.50;;;99.30;;
67804;SDS011;54603;45.638;11.714;2022-08-21T10:51:28;230.40;;;132.60;;
67804;SDS011;54603;45.638;11.714;2022-08-21T10:56:58;182.60;;;103.30;;
67804;SDS011;54603;45.638;11.714;2022-08-21T10:59:38;150.50;;;88.10;;
67804;SDS011;54603;45.638;11.714;2022-08-21T11:02:26;143.40;;;86.00;;
67804;SDS011;54603;45.638;11.714;2022-08-21T11:07:33;147.00;;;89.20;;
67804;SDS011;54603;45.638;11.714;2022-08-21T11:10:03;150.30;;;89.90;;
67804;SDS011;54603;45.638;11.714;2022-08-21T11:12:58;145.90;;;87.70;;
67804;SDS011;54603;45.638;11.714;2022-08-21T11:15:31;137.90;;;84.00;;
67804;SDS011;54603;45.638;11.714;2022-08-21T11:18:04;127.50;;;79.70;;
67804;SDS011;54603;45.638;11.714;2022-08-21T11:20:50;128.20;;;80.80;;
67804;SDS011;54603;45.638;11.714;2022-08-21T11:23:28;128.40;;;77.60;;
67804;SDS011;54603;45.638;11.714;2022-08-21T11:26:00;121.00;;;76.60;;
67804;SDS011;54603;45.638;11.714;2022-08-21T11:28:30;104.80;;;68.20;;
67804;SDS011;54603;45.638;11.714;2022-08-21T11:31:27;119.60;;;75.60;;
67804;SDS011;54603;45.638;11.714;2022-08-21T11:48:36;127.20;;;78.80;;
67804;SDS011;54603;45.638;11.714;2022-08-21T11:51:16;118.40;;;76.30;;
67804;SDS011;54603;45.638;11.714;2022-08-21T11:56:50;125.70;;;80.70;;
67804;SDS011;54603;45.638;11.714;2022-08-21T11:59:36;127.80;;;79.20;;
67804;SDS011;54603;45.638;11.714;2022-08-21T12:02:16;124.10;;;77.60;;
67804;SDS011;54603;45.638;11.714;2022-08-21T12:04:45;127.70;;;80.80;;
67804;SDS011;54603;45.638;11.714;2022-08-21T12:07:15;127.40;;;77.60;;
67804;SDS011;54603;45.638;11.714;2022-08-21T12:10:04;124.20;;;79.50;;
67804;SDS011;54603;45.638;11.714;2022-08-21T12:12:36;124.20;;;76.20;;
67804;SDS011;54603;45.638;11.714;2022-08-21T12:17:53;115.50;;;72.30;;
67804;SDS011;54603;45.638;11.714;2022-08-21T12:25:40;102.20;;;71.20;;
67804;SDS011;54603;45.638;11.714;2022-08-21T12:28:39;108.60;;;72.00;;
67804;SDS011;54603;45.638;11.714;2022-08-21T12:31:54;112.10;;;69.60;;
67804;SDS011;54603;45.638;11.714;2022-08-21T12:34:40;111.40;;;70.70;;
67804;SDS011;54603;45.638;11.714;2022-08-21T12:37:21;107.90;;;69.20;;
67804;SDS011;54603;45.638;11.714;2022-08-21T12:40:20;106.00;;;69.20;;
67804;SDS011;54603;45.638;11.714;2022-08-21T12:43:02;109.70;;;69.30;;
67804;SDS011;54603;45.638;11.714;2022-08-21T12:45:32;104.70;;;69.40;;
67804;SDS011;54603;45.638;11.714;2022-08-21T12:48:21;108.90;;;71.30;;
67804;SDS011;54603;45.638;11.714;2022-08-21T12:50:50;105.50;;;69.50;;
67804;SDS011;54603;45.638;11.714;2022-08-21T12:55:56;96.90;;;66.30;;
67804;SDS011;54603;45.638;11.714;2022-08-21T12:58:26;105.40;;;70.50;;
67804;SDS011;54603;45.638;11.714;2022-08-21T13:00:55;101.30;;;66.80;;
67804;SDS011;54603;45.638;11.714;2022-08-21T13:03:25;102.90;;;69.00;;
67804;SDS011;54603;45.638;11.714;2022-08-21T13:05:51;102.60;;;67.90;;
67804;SDS011;54603;45.638;11.714;2022-08-21T13:08:18;102.70;;;67.90;;
67804;SDS011;54603;45.638;11.714;2022-08-21T13:10:45;99.70;;;65.10;;
67804;SDS011;54603;45.638;11.714;2022-08-21T13:13:19;97.30;;;65.80;;
67804;SDS011;54603;45.638;11.714;2022-08-21T13:16:00;99.50;;;65.50;;
67804;SDS011;54603;45.638;11.714;2022-08-21T13:18:31;95.70;;;66.00;;
67804;SDS011;54603;45.638;11.714;2022-08-21T13:21:13;95.00;;;65.80;;
67804;SDS011;54603;45.638;11.714;2022-08-21T13:23:40;92.70;;;64.70;;
67804;SDS011;54603;45.638;11.714;2022-08-21T13:26:13;89.20;;;63.60;;
67804;SDS011;54603;45.638;11.714;2022-08-21T13:28:43;88.70;;;62.60;;
67804;SDS011;54603;45.638;11.714;2022-08-21T13:31:15;96.20;;;62.40;;
67804;SDS011;54603;45.638;11.714;2022-08-21T13:33:43;90.30;;;61.90;;
67804;SDS011;54603;45.638;11.714;2022-08-21T13:38:57;86.50;;;60.60;;
67804;SDS011;54603;45.638;11.714;2022-08-21T13:41:26;87.40;;;60.60;;
67804;SDS011;54603;45.638;11.714;2022-08-21T13:43:59;91.00;;;61.60;;
67804;SDS011;54603;45.638;11.714;2022-08-21T13:46:46;82.80;;;59.60;;
67804;SDS011;54603;45.638;11.714;2022-08-21T13:49:15;90.90;;;59.20;;
67804;SDS011;54603;45.638;11.714;2022-08-21T13:51:43;81.50;;;58.40;;
67804;SDS011;54603;45.638;11.714;2022-08-21T13:57:00;79.20;;;57.10;;
67804;SDS011;54603;45.638;11.714;2022-08-21T13:59:27;78.80;;;54.50;;
67804;SDS011;54603;45.638;11.714;2022-08-21T14:04:31;73.70;;;54.20;;
67804;SDS011;54603;45.638;11.714;2022-08-21T14:06:58;77.20;;;54.20;;
67804;SDS011;54603;45.638;11.714;2022-08-21T14:09:32;79.70;;;54.00;;
67804;SDS011;54603;45.638;11.714;2022-08-21T14:12:00;78.00;;;53.50;;
67804;SDS011;54603;45.638;11.714;2022-08-21T14:14:29;73.80;;;52.40;;
67804;SDS011;54603;45.638;11.714;2022-08-21T14:17:04;78.20;;;53.10;;
67804;SDS011;54603;45.638;11.714;2022-08-21T14:19:41;76.10;;;53.10;;
67804;SDS011;54603;45.638;11.714;2022-08-21T14:25:42;73.70;;;51.50;;
67804;SDS011;54603;45.638;11.714;2022-08-21T14:27:55;71.10;;;50.90;;
67804;SDS011;54603;45.638;11.714;2022-08-21T14:30:30;64.50;;;50.60;;
67804;SDS011;54603;45.638;11.714;2022-08-21T14:33:01;67.30;;;50.40;;
67804;SDS011;54603;45.638;11.714;2022-08-21T14:35:27;70.50;;;51.10;;
67804;SDS011;54603;45.638;11.714;2022-08-21T14:37:54;72.20;;;49.10;;
67804;SDS011;54603;45.638;11.714;2022-08-21T14:40:21;70.00;;;50.50;;
67804;SDS011;54603;45.638;11.714;2022-08-21T14:42:48;65.30;;;49.00;;
67804;SDS011;54603;45.638;11.714;2022-08-21T14:47:52;65.30;;;47.20;;
67804;SDS011;54603;45.638;11.714;2022-08-21T14:50:19;68.20;;;48.10;;
67804;SDS011;54603;45.638;11.714;2022-08-21T14:52:47;69.40;;;48.10;;
67804;SDS011;54603;45.638;11.714;2022-08-21T14:55:13;68.80;;;48.00;;
67804;SDS011;54603;45.638;11.714;2022-08-21T14:57:41;65.60;;;48.00;;
67804;SDS011;54603;45.638;11.714;2022-08-21T15:00:11;61.30;;;45.90;;
67804;SDS011;54603;45.638;11.714;2022-08-21T15:02:39;63.20;;;47.60;;
67804;SDS011;54603;45.638;11.714;2022-08-21T15:05:04;69.00;;;46.90;;
67804;SDS011;54603;45.638;11.714;2022-08-21T15:07:30;67.90;;;46.50;;
67804;SDS011;54603;45.638;11.714;2022-08-21T15:09:56;64.50;;;45.50;;
67804;SDS011;54603;45.638;11.714;2022-08-21T15:12:22;63.50;;;46.10;;
67804;SDS011;54603;45.638;11.714;2022-08-21T15:14:48;60.70;;;46.20;;
67804;SDS011;54603;45.638;11.714;2022-08-21T15:17:14;62.40;;;47.10;;
67804;SDS011;54603;45.638;11.714;2022-08-21T15:19:39;58.40;;;45.00;;
67804;SDS011;54603;45.638;11.714;2022-08-21T15:22:06;60.40;;;44.90;;
67804;SDS011;54603;45.638;11.714;2022-08-21T15:24:32;62.80;;;45.10;;
67804;SDS011;54603;45.638;11.714;2022-08-21T15:26:59;60.90;;;45.00;;
67804;SDS011;54603;45.638;11.714;2022-08-21T15:29:27;56.10;;;42.20;;
67804;SDS011;54603;45.638;11.714;2022-08-21T15:31:55;57.30;;;42.10;;
67804;SDS011;54603;45.638;11.714;2022-08-21T15:34:28;57.20;;;41.50;;
67804;SDS011;54603;45.638;11.714;2022-08-21T15:36:55;55.20;;;41.60;;
67804;SDS011;54603;45.638;11.714;2022-08-21T15:39:21;58.20;;;43.70;;
67804;SDS011;54603;45.638;11.714;2022-08-21T15:41:47;59.20;;;41.50;;
67804;SDS011;54603;45.638;11.714;2022-08-21T15:44:14;53.00;;;40.50;;
67804;SDS011;54603;45.638;11.714;2022-08-21T15:46:40;56.60;;;42.20;;
67804;SDS011;54603;45.638;11.714;2022-08-21T15:49:10;57.00;;;42.10;;
67804;SDS011;54603;45.638;11.714;2022-08-21T15:51:46;55.00;;;41.90;;
67804;SDS011;54603;45.638;11.714;2022-08-21T15:54:13;54.90;;;41.60;;
67804;SDS011;54603;45.638;11.714;2022-08-21T15:56:44;52.80;;;40.40;;
67804;SDS011;54603;45.638;11.714;2022-08-21T15:59:13;53.50;;;41.80;;
67804;SDS011;54603;45.638;11.714;2022-08-21T16:01:41;52.50;;;40.90;;
67804;SDS011;54603;45.638;11.714;2022-08-21T16:04:07;54.40;;;40.80;;
67804;SDS011;54603;45.638;11.714;2022-08-21T16:06:33;51.30;;;39.80;;
67804;SDS011;54603;45.638;11.714;2022-08-21T16:09:01;55.90;;;40.20;;